Lexington (LEX/KLEX)

Map

Destinations

Information

Location
Lexington, KY
Local Time
18:29 / 6:29 pm
GMT Time
22:29 / 10:29 pm
Gates
Unassigned
No FAA reported delays
METAR KLEX 272154Z 12005KT 10SM -RA FEW055 SCT080 BKN100 19/14 A2986 RMK AO2 LTG DSNT SE-W RAB27 SLP107 P0001 T01890139
TAF KLEX 272021Z 2720/2818 19008KT P6SM VCSH SCT040 BKN100 FM272100 19008KT P6SM VCTS SCT040CB BKN100 TEMPO 2722/2802 4SM TSRA OVC040CB FM280300 17005KT P6SM SHRA OVC050 FM280600 17006KT 6SM -SHRA OVC050 FM280900 VRB05KT P6SM VCSH OVC015
  • No charts available